Terminal Aerodrome Forecast
Issued by NWS

Home | Current Version | Previous Version | Text Only | Print | Product List | Glossary On
Versions: 1 2 3 4 5 6 7 8 9 10 11 12 13 14 15 16 17 18 19 20 21 22 23 24 25 26 27 28 29
777
FTUS44 KEWX 272201 AAA
TAFSSF
TAF AMD
KSSF 272201Z 2722/2818 06012KT P6SM SCT050
     FM280000 09010KT P6SM SCT050
     FM280500 13006KT P6SM OVC015
     FM280900 15005KT P6SM OVC007
     FM281500 17008KT P6SM OVC015=

USA.gov is the U.S. government's official web portal to all federal, state and local government web resources and services.